createdAt,value
2019-04-05T00:00:23.894Z,5.07
2019-04-05T00:02:57.519Z,5.95
2019-04-05T00:05:31.255Z,6.55
2019-04-05T00:08:04.783Z,5.62
2019-04-05T00:10:38.418Z,6.37
2019-04-05T00:13:12.198Z,7.45
2019-04-05T00:15:46.763Z,7.25
2019-04-05T00:18:21.170Z,7.30
2019-04-05T00:20:55.003Z,7.12
2019-04-05T00:23:28.545Z,7.82
2019-04-05T00:26:02.184Z,6.00
2019-04-05T00:28:35.846Z,6.82
2019-04-05T00:31:10.108Z,8.18
2019-04-05T00:33:43.644Z,7.45
2019-04-05T00:36:17.372Z,5.72
2019-04-05T00:38:50.911Z,6.93
2019-04-05T00:41:24.403Z,8.70
2019-04-05T00:43:58.135Z,5.00
2019-04-05T00:46:31.964Z,5.12
2019-04-05T00:49:05.644Z,6.62
2019-04-05T00:51:39.196Z,7.47
2019-04-05T00:54:12.739Z,5.47
2019-04-05T00:56:46.347Z,9.50
2019-04-05T00:59:20.031Z,6.75
2019-04-05T01:01:53.576Z,6.30
2019-04-05T01:04:27.194Z,7.37
2019-04-05T01:07:01.665Z,7.22
2019-04-05T01:09:35.202Z,8.10
2019-04-05T01:12:08.992Z,6.22
2019-04-05T01:14:42.675Z,8.25
2019-04-05T01:17:24.789Z,5.53
2019-04-05T01:19:50.923Z,9.38
2019-04-05T01:22:24.887Z,8.88
2019-04-05T01:24:59.216Z,8.07
2019-04-05T01:27:33.651Z,6.97
2019-04-05T01:30:08.864Z,6.35
2019-04-05T01:32:42.379Z,9.80
2019-04-05T01:35:16.706Z,9.10
2019-04-05T01:37:50.425Z,8.07
2019-04-05T01:40:23.973Z,6.82
2019-04-05T01:42:57.740Z,8.13
2019-04-05T01:45:31.401Z,10.07
2019-04-05T01:48:04.972Z,7.12
2019-04-05T01:50:39.330Z,8.15
2019-04-05T01:53:13.956Z,9.13
2019-04-05T01:55:48.351Z,7.07
2019-04-05T01:58:22.092Z,8.63
2019-04-05T02:00:55.682Z,7.00
2019-04-05T02:03:30.133Z,7.87
2019-04-05T02:06:03.767Z,6.62
2019-04-05T02:08:37.303Z,7.47
2019-04-05T02:11:10.884Z,7.75
2019-04-05T02:13:44.542Z,7.03
2019-04-05T02:16:18.115Z,6.22
2019-04-05T02:18:51.730Z,8.48
2019-04-05T02:21:25.307Z,8.32
2019-04-05T02:23:59.023Z,9.48
2019-04-05T02:26:33.356Z,7.45
2019-04-05T02:29:06.978Z,5.78
2019-04-05T02:31:40.582Z,9.85
2019-04-05T02:34:14.216Z,9.10
2019-04-05T02:36:47.718Z,8.48
2019-04-05T02:39:21.503Z,9.10
2019-04-05T02:41:55.851Z,7.53
2019-04-05T02:44:29.456Z,8.45
2019-04-05T02:47:03.051Z,8.27
2019-04-05T02:49:36.674Z,8.10
2019-04-05T02:52:10.384Z,9.88
2019-04-05T02:54:44.769Z,8.25
2019-04-05T02:57:18.525Z,9.80
2019-04-05T02:59:52.190Z,9.50
2019-04-05T03:02:25.768Z,8.80
2019-04-05T03:04:59.531Z,6.80
2019-04-05T03:07:33.307Z,8.75
2019-04-05T03:10:06.940Z,10.18
2019-04-05T03:12:40.588Z,7.93
2019-04-05T03:15:14.225Z,8.18
2019-04-05T03:17:47.766Z,8.52
2019-04-05T03:20:21.340Z,6.25
2019-04-05T03:22:55.039Z,8.52
2019-04-05T03:25:28.727Z,8.20
2019-04-05T03:28:03.148Z,7.20
2019-04-05T03:30:36.716Z,6.32
2019-04-05T03:33:10.263Z,7.90
2019-04-05T03:35:44.012Z,7.82
2019-04-05T03:38:18.540Z,7.78
2019-04-05T03:40:52.094Z,9.55
2019-04-05T03:43:25.656Z,7.82
2019-04-05T03:46:00.002Z,10.75
2019-04-05T03:48:33.660Z,8.27
2019-04-05T03:51:07.368Z,9.93
2019-04-05T03:53:40.947Z,8.57
2019-04-05T03:56:14.589Z,12.13
2019-04-05T03:58:48.992Z,7.60
2019-04-05T04:01:22.927Z,8.43
2019-04-05T04:03:57.322Z,9.02
2019-04-05T04:06:31.893Z,12.35
2019-04-05T04:09:05.899Z,8.93
2019-04-05T04:11:39.927Z,8.48
2019-04-05T04:14:13.562Z,7.93
2019-04-05T04:16:47.332Z,12.05
2019-04-05T04:19:21.045Z,10.57
2019-04-05T04:22:20.082Z,8.23
2019-04-05T04:24:53.762Z,7.60
2019-04-05T04:27:27.602Z,6.75
2019-04-05T04:30:01.446Z,9.52
2019-04-05T04:32:34.916Z,8.93
2019-04-05T04:35:09.224Z,8.93
2019-04-05T04:37:42.861Z,10.90
2019-04-05T04:40:16.606Z,9.13
2019-04-05T04:42:50.337Z,9.73
2019-04-05T04:45:23.971Z,7.25
2019-04-05T04:47:57.735Z,9.52
2019-04-05T04:50:31.422Z,10.32
2019-04-05T04:53:05.075Z,10.77
2019-04-05T04:55:38.679Z,12.37
2019-04-05T04:58:12.252Z,11.07
2019-04-05T05:00:45.868Z,11.43
2019-04-05T05:03:19.641Z,11.18
2019-04-05T05:05:53.394Z,11.18
2019-04-05T05:08:27.056Z,11.10
2019-04-05T05:11:00.639Z,11.10
2019-04-05T05:13:34.352Z,13.57
2019-04-05T05:16:08.006Z,10.07
2019-04-05T05:18:41.694Z,14.10
2019-04-05T05:21:15.452Z,19.27
2019-04-05T05:23:49.067Z,12.80
2019-04-05T05:26:22.819Z,12.15
2019-04-05T05:28:56.522Z,12.48
2019-04-05T05:31:30.309Z,17.67
2019-04-05T05:34:03.961Z,11.00
2019-04-05T05:36:37.721Z,11.93
2019-04-05T05:39:11.455Z,13.82
2019-04-05T05:41:45.931Z,12.35
2019-04-05T05:44:19.767Z,12.50
2019-04-05T05:46:53.511Z,11.45
2019-04-05T05:49:27.194Z,18.15
2019-04-05T05:52:00.776Z,13.62
2019-04-05T05:54:34.522Z,11.90
2019-04-05T05:57:08.048Z,9.73
2019-04-05T05:59:41.902Z,7.72
2019-04-05T06:02:15.520Z,12.15
2019-04-05T06:04:49.238Z,10.32
2019-04-05T06:07:22.765Z,12.50
2019-04-05T06:09:56.351Z,10.13
2019-04-05T06:12:30.051Z,12.48
2019-04-05T06:15:03.772Z,12.43
2019-04-05T06:17:37.366Z,14.75
2019-04-05T06:20:12.006Z,9.60
2019-04-05T06:22:47.617Z,11.88
2019-04-05T06:25:19.449Z,9.93
2019-04-05T06:27:53.967Z,10.88
2019-04-05T06:33:02.102Z,8.73
2019-04-05T06:35:35.925Z,9.35
2019-04-05T06:35:39.525Z,10.30
2019-04-05T06:38:10.306Z,14.27
2019-04-05T06:40:44.011Z,10.82
2019-04-05T06:43:17.602Z,9.05
2019-04-05T06:45:51.263Z,10.35
2019-04-05T06:48:24.777Z,8.95
2019-04-05T06:50:58.389Z,10.05
2019-04-05T06:53:32.820Z,9.88
2019-04-05T06:56:06.522Z,8.48
2019-04-05T06:58:40.052Z,9.07
2019-04-05T07:01:13.604Z,10.65
2019-04-05T07:03:47.975Z,9.07
2019-04-05T07:06:21.689Z,11.02
2019-04-05T07:08:55.350Z,13.13
2019-04-05T07:11:28.928Z,10.55
2019-04-05T07:14:03.365Z,10.70
2019-04-05T07:16:37.100Z,11.45
2019-04-05T07:19:10.681Z,8.80
2019-04-05T07:21:44.279Z,11.18
2019-04-05T07:24:19.056Z,12.30
2019-04-05T07:26:53.537Z,10.85
2019-04-05T07:29:27.238Z,12.70
2019-04-05T07:32:00.847Z,13.88
2019-04-05T07:34:34.484Z,14.35
2019-04-05T07:37:08.222Z,15.27
2019-04-05T07:39:41.895Z,14.85
2019-04-05T07:42:15.599Z,17.08
2019-04-05T07:44:49.285Z,15.15
2019-04-05T07:47:23.869Z,13.45
2019-04-05T07:49:57.779Z,14.05
2019-04-05T07:52:31.468Z,13.90
2019-04-05T07:55:06.185Z,14.73
2019-04-05T07:57:39.899Z,14.27
2019-04-05T08:13:53.588Z,14.00
2019-04-05T08:16:27.178Z,12.77
2019-04-05T08:19:00.854Z,15.43
2019-04-05T08:21:34.492Z,12.70
2019-04-05T08:24:08.154Z,18.08
2019-04-05T08:26:41.918Z,15.02
2019-04-05T08:29:15.682Z,13.45
2019-04-05T08:31:49.334Z,16.70
2019-04-05T08:34:23.015Z,13.68
2019-04-05T08:36:56.671Z,15.15
2019-04-05T08:39:30.220Z,16.30
2019-04-05T08:42:03.987Z,14.68
2019-04-05T08:44:37.847Z,14.43
2019-04-05T08:47:12.180Z,13.62
2019-04-05T08:49:45.808Z,17.20
2019-04-05T08:52:19.454Z,17.83
2019-04-05T08:54:53.076Z,17.95
2019-04-05T08:57:26.793Z,16.80
2019-04-05T09:00:01.252Z,16.90
2019-04-05T09:02:34.958Z,15.18
2019-04-05T09:05:08.567Z,15.23
2019-04-05T09:07:43.087Z,16.30
2019-04-05T09:10:17.412Z,15.55
2019-04-05T09:12:51.007Z,18.60
2019-04-05T09:15:25.405Z,18.02
2019-04-05T09:17:59.201Z,13.60
2019-04-05T09:20:32.957Z,15.43
2019-04-05T09:23:07.833Z,15.80
2019-04-05T09:25:41.490Z,14.90
2019-04-05T09:28:16.369Z,14.70
2019-04-05T09:30:51.795Z,18.98
2019-04-05T09:33:23.506Z,14.05
2019-04-05T09:35:57.297Z,18.08
2019-04-05T09:38:30.885Z,18.48
2019-04-05T09:41:04.625Z,14.55
2019-04-05T09:43:38.280Z,19.75
2019-04-05T09:46:12.082Z,18.35
2019-04-05T09:48:46.516Z,12.98
2019-04-05T09:51:20.727Z,15.65
2019-04-05T09:53:54.600Z,14.93
2019-04-05T09:56:28.347Z,14.05
2019-04-05T09:59:01.940Z,13.13
2019-04-05T10:01:35.663Z,14.95
2019-04-05T10:04:09.865Z,14.80
2019-04-05T10:06:43.485Z,19.80
2019-04-05T10:09:17.084Z,14.52
2019-04-05T10:11:51.703Z,11.32
2019-04-05T10:14:25.392Z,13.55
2019-04-05T10:16:59.008Z,15.82
2019-04-05T10:19:33.358Z,14.77
2019-04-05T10:22:07.736Z,17.37
2019-04-05T10:24:41.276Z,16.23
2019-04-05T10:27:14.816Z,14.32
2019-04-05T10:29:49.653Z,15.88
2019-04-05T10:32:22.308Z,14.10
2019-04-05T10:34:55.768Z,13.73
2019-04-05T10:37:29.592Z,16.70
2019-04-05T10:40:03.155Z,14.70
2019-04-05T10:42:36.738Z,14.13
2019-04-05T10:45:10.362Z,17.90
2019-04-05T10:47:43.963Z,14.10
2019-04-05T10:50:17.749Z,14.82
2019-04-05T10:52:52.208Z,15.13
2019-04-05T10:55:25.948Z,14.50
2019-04-05T10:57:59.813Z,13.07
2019-04-05T11:00:33.564Z,16.23
2019-04-05T11:03:07.327Z,13.82
2019-04-05T11:05:40.907Z,14.20
2019-04-05T11:08:14.687Z,15.07
2019-04-05T11:10:48.236Z,13.02
2019-04-05T11:13:21.918Z,14.15
2019-04-05T11:15:56.437Z,10.30
2019-04-05T11:18:30.635Z,8.38
2019-04-05T11:21:03.744Z,10.27
2019-04-05T11:23:38.061Z,10.20
2019-04-05T11:26:11.911Z,8.68
2019-04-05T11:28:45.487Z,9.40
2019-04-05T11:31:19.047Z,11.85
2019-04-05T11:33:52.713Z,15.38
2019-04-05T11:36:26.367Z,12.10
2019-04-05T11:39:00.892Z,15.65
2019-04-05T11:41:34.562Z,11.25
2019-04-05T11:44:08.236Z,13.77
2019-04-05T11:46:41.905Z,13.02
2019-04-05T11:49:15.486Z,11.88
2019-04-05T11:51:49.566Z,13.20
2019-04-05T11:54:23.157Z,10.80
2019-04-05T11:56:57.771Z,10.63
2019-04-05T11:59:32.277Z,11.48
2019-04-05T12:02:10.687Z,9.18
2019-04-05T12:04:44.332Z,12.82
2019-04-05T12:07:24.057Z,12.82
2019-04-05T12:09:54.240Z,11.68
2019-04-05T12:12:27.817Z,12.75
2019-04-05T12:15:01.587Z,9.07
2019-04-05T12:17:35.721Z,8.15
2019-04-05T12:20:09.012Z,10.85
2019-04-05T12:22:42.596Z,8.80
2019-04-05T12:25:17.060Z,8.48
2019-04-05T12:27:50.853Z,8.60
2019-04-05T12:30:25.322Z,10.27
2019-04-05T12:33:12.484Z,8.60
2019-04-05T12:35:33.659Z,10.43
2019-04-05T12:38:07.368Z,11.38
2019-04-05T12:40:41.347Z,10.85
2019-04-05T12:43:14.675Z,9.73
2019-04-05T12:45:49.142Z,8.63
2019-04-05T12:48:23.704Z,9.15
2019-04-05T12:51:01.395Z,11.77
2019-04-05T12:53:31.028Z,8.98
2019-04-05T12:56:04.787Z,15.13
2019-04-05T12:58:39.344Z,9.13
2019-04-05T13:01:12.935Z,11.95
2019-04-05T13:03:46.579Z,14.57
2019-04-05T13:06:21.857Z,10.55
2019-04-05T13:08:54.504Z,11.45
2019-04-05T13:11:27.660Z,14.40
2019-04-05T13:14:01.958Z,8.80
2019-04-05T13:16:36.283Z,7.57
2019-04-05T13:19:10.701Z,9.75
2019-04-05T13:21:44.403Z,10.60
2019-04-05T13:24:18.047Z,11.45
2019-04-05T13:26:51.850Z,12.75
2019-04-05T13:29:25.715Z,11.52
2019-04-05T13:31:59.462Z,12.35
2019-04-05T13:34:33.338Z,11.35
2019-04-05T13:37:19.544Z,10.35
2019-04-05T13:39:42.201Z,10.93
2019-04-05T13:42:15.892Z,9.75
2019-04-05T13:44:49.671Z,8.57
2019-04-05T13:47:23.291Z,14.20
2019-04-05T13:49:56.999Z,12.85
2019-04-05T13:52:30.687Z,13.93
2019-04-05T13:55:04.339Z,11.48
2019-04-05T13:57:40.123Z,11.77
2019-04-05T14:00:11.503Z,14.75
2019-04-05T14:02:45.199Z,13.55
2019-04-05T14:05:18.880Z,13.68
2019-04-05T14:08:09.148Z,10.05
2019-04-05T14:10:26.491Z,11.35
2019-04-05T14:13:00.438Z,9.45
2019-04-05T14:15:34.923Z,8.30
2019-04-05T14:18:08.556Z,11.10
2019-04-05T14:20:42.253Z,10.25
2019-04-05T14:23:15.912Z,10.30
2019-04-05T14:25:49.576Z,9.57
2019-04-05T14:28:23.148Z,11.82
2019-04-05T14:30:56.746Z,9.55
2019-04-05T14:33:30.480Z,11.38
2019-04-05T14:36:04.340Z,12.93
2019-04-05T14:38:38.523Z,11.32
2019-04-05T14:41:12.188Z,9.73
2019-04-05T14:43:46.611Z,8.38
2019-04-05T14:46:20.512Z,10.20
2019-04-05T14:48:54.251Z,13.05
2019-04-05T14:51:29.385Z,9.70
2019-04-05T14:54:02.540Z,11.20
2019-04-05T14:56:36.268Z,11.40
2019-04-05T14:59:10.377Z,9.85
2019-04-05T15:01:46.729Z,10.55
2019-04-05T15:04:17.628Z,9.63
2019-04-05T15:06:51.473Z,10.32
2019-04-05T15:09:25.656Z,12.50
2019-04-05T15:11:59.285Z,11.45
2019-04-05T15:14:32.383Z,48.25
2019-04-05T15:17:05.970Z,8.85
2019-04-05T15:19:39.751Z,10.52
2019-04-05T15:22:14.694Z,9.88
2019-04-05T15:24:48.427Z,12.05
2019-04-05T15:27:22.264Z,8.70
2019-04-05T15:29:56.671Z,9.02
2019-04-05T15:32:30.910Z,17.17
2019-04-05T15:35:07.463Z,13.43
2019-04-05T15:37:41.899Z,9.05
2019-04-05T15:40:15.612Z,15.60
2019-04-05T15:42:49.382Z,12.05
2019-04-05T15:45:22.974Z,12.50
2019-04-05T15:47:57.316Z,13.75
2019-04-05T15:50:31.836Z,11.50
2019-04-05T15:53:06.185Z,10.30
2019-04-05T15:55:39.740Z,10.95
2019-04-05T15:58:14.020Z,10.88
2019-04-05T16:00:48.617Z,9.60
2019-04-05T16:03:23.124Z,10.02
2019-04-05T16:05:56.796Z,11.02
2019-04-05T16:08:30.480Z,11.65
2019-04-05T16:11:04.339Z,10.20
2019-04-05T16:13:38.135Z,9.57
2019-04-05T16:16:11.762Z,15.18
2019-04-05T16:18:45.409Z,12.25
2019-04-05T16:21:20.018Z,11.10
2019-04-05T16:23:53.687Z,12.18
2019-04-05T16:26:27.384Z,11.25
2019-04-05T16:29:01.152Z,13.88
2019-04-05T16:31:35.672Z,11.15
2019-04-05T16:34:09.395Z,12.27
2019-04-05T16:36:42.974Z,9.35
2019-04-05T16:39:16.793Z,14.80
2019-04-05T16:41:50.333Z,12.63
2019-04-05T16:44:24.501Z,14.23
2019-04-05T16:46:58.040Z,13.07
2019-04-05T16:49:31.797Z,10.63
2019-04-05T16:52:05.355Z,13.40
2019-04-05T16:54:39.929Z,11.82
2019-04-05T16:57:13.507Z,14.87
2019-04-05T16:59:47.241Z,10.35
2019-04-05T17:02:20.980Z,11.38
2019-04-05T17:04:54.668Z,15.93
2019-04-05T17:07:28.314Z,14.75
2019-04-05T17:10:01.964Z,10.60
2019-04-05T17:12:35.679Z,11.73
2019-04-05T17:15:09.478Z,14.00
2019-04-05T17:17:43.377Z,12.18
2019-04-05T17:20:17.879Z,11.73
2019-04-05T17:22:57.974Z,12.00
2019-04-05T17:25:25.235Z,13.45
2019-04-05T17:27:58.863Z,11.85
2019-04-05T17:30:36.072Z,12.63
2019-04-05T17:33:07.756Z,13.15
2019-04-05T17:35:42.157Z,13.73
2019-04-05T17:38:17.836Z,13.95
2019-04-05T17:40:51.688Z,12.05
2019-04-05T17:43:26.097Z,10.95
2019-04-05T17:46:00.453Z,13.40
2019-04-05T17:48:34.809Z,12.10
2019-04-05T17:51:08.493Z,13.62
2019-04-05T17:53:42.140Z,13.62
2019-04-05T17:56:15.795Z,11.95
2019-04-05T17:58:49.475Z,14.20
2019-04-05T18:01:23.075Z,13.43
2019-04-05T18:03:57.635Z,10.80
2019-04-05T18:06:31.233Z,14.23
2019-04-05T18:09:05.021Z,9.63
2019-04-05T18:11:39.536Z,13.35
2019-04-05T18:14:13.238Z,12.73
2019-04-05T18:16:46.830Z,12.23
2019-04-05T18:19:20.557Z,12.48
2019-04-05T18:21:54.336Z,11.90
2019-04-05T18:24:28.983Z,12.00
2019-04-05T18:27:02.609Z,12.55
2019-04-05T18:29:36.330Z,13.82
2019-04-05T18:32:10.807Z,13.20
2019-04-05T18:34:45.423Z,14.90
2019-04-05T18:37:19.185Z,16.20
2019-04-05T18:39:52.852Z,10.55
2019-04-05T18:42:26.394Z,11.68
2019-04-05T18:44:59.958Z,12.90
2019-04-05T18:47:33.619Z,14.27
2019-04-05T18:50:08.092Z,12.23
2019-04-05T18:52:41.726Z,13.40
2019-04-05T18:55:15.375Z,11.32
2019-04-05T18:57:49.060Z,12.90
2019-04-05T19:00:22.768Z,15.57
2019-04-05T19:02:56.478Z,11.50
2019-04-05T19:05:30.112Z,11.38
2019-04-05T19:08:03.815Z,12.13
2019-04-05T19:10:37.648Z,22.83
2019-04-05T19:13:11.097Z,12.35
2019-04-05T19:15:44.830Z,14.05
2019-04-05T19:18:19.424Z,14.18
2019-04-05T19:20:53.064Z,11.35
2019-04-05T19:23:26.633Z,12.75
2019-04-05T19:26:00.226Z,12.98
2019-04-05T19:28:33.951Z,9.82
2019-04-05T19:49:05.855Z,12.15
2019-04-05T19:51:39.530Z,13.60
2019-04-05T19:54:13.300Z,10.82
2019-04-05T19:56:47.155Z,13.10
2019-04-05T19:59:21.439Z,11.82
2019-04-05T20:01:55.039Z,11.70
2019-04-05T20:04:29.842Z,11.60
2019-04-05T20:07:03.437Z,15.13
2019-04-05T20:09:37.123Z,13.05
2019-04-05T20:12:10.911Z,13.00
2019-04-05T20:14:44.610Z,12.93
2019-04-05T20:17:18.360Z,15.45
2019-04-05T20:19:52.099Z,12.65
2019-04-05T20:22:25.796Z,14.80
2019-04-05T20:24:59.462Z,14.55
2019-04-05T20:27:33.004Z,12.30
2019-04-05T20:30:06.630Z,12.35
2019-04-05T20:32:40.319Z,12.68
2019-04-05T20:35:14.000Z,13.73
2019-04-05T20:37:48.442Z,13.52
2019-04-05T20:40:22.197Z,14.18
2019-04-05T20:42:56.044Z,15.43
2019-04-05T20:45:29.721Z,15.25
2019-04-05T20:48:03.476Z,13.25
2019-04-05T20:50:37.101Z,11.63
2019-04-05T20:53:11.449Z,17.33
2019-04-05T20:55:45.003Z,14.48
2019-04-05T20:58:18.796Z,15.98
2019-04-05T21:00:52.474Z,15.18
2019-04-05T21:03:26.073Z,24.45
2019-04-05T21:05:59.745Z,20.30
2019-04-05T21:08:34.280Z,16.02
2019-04-05T21:11:07.896Z,14.15
2019-04-05T21:13:41.547Z,15.98
2019-04-05T21:16:15.209Z,15.32
2019-04-05T21:18:48.806Z,14.20
2019-04-05T21:21:23.344Z,17.98
2019-04-05T21:23:56.982Z,16.42
2019-04-05T21:26:31.564Z,14.73
2019-04-05T21:29:05.287Z,13.48
2019-04-05T21:31:39.094Z,13.48
2019-04-05T21:34:12.679Z,19.45
2019-04-05T21:36:46.460Z,21.30
2019-04-05T21:39:21.021Z,15.90
2019-04-05T21:41:54.740Z,17.62
2019-04-05T21:44:28.384Z,16.87
2019-04-05T21:47:02.731Z,15.38
2019-04-05T21:49:36.274Z,18.02
2019-04-05T21:52:10.440Z,19.50
2019-04-05T21:54:47.686Z,16.17
2019-04-05T21:57:17.644Z,13.95
2019-04-05T21:59:51.531Z,16.80
2019-04-05T22:02:25.908Z,14.15
2019-04-05T22:05:01.307Z,20.92
2019-04-05T22:07:34.164Z,15.30
2019-04-05T22:10:07.836Z,18.58
2019-04-05T22:12:42.362Z,15.85
2019-04-05T22:15:15.927Z,16.85
2019-04-05T22:17:49.515Z,16.75
2019-04-05T22:20:23.381Z,19.48
2019-04-05T22:22:57.002Z,22.90
2019-04-05T22:25:32.404Z,14.57
2019-04-05T22:28:06.904Z,19.08
2019-04-05T22:30:40.727Z,18.50
2019-04-05T22:33:14.289Z,19.23
2019-04-05T22:35:47.920Z,16.48
2019-04-05T22:38:21.639Z,18.00
2019-04-05T22:40:55.189Z,17.98
2019-04-05T22:43:28.798Z,17.30
2019-04-05T22:46:02.565Z,18.15
2019-04-05T22:48:36.128Z,16.80
2019-04-05T22:51:10.661Z,16.02
2019-04-05T22:53:44.332Z,24.58
2019-04-05T22:56:17.994Z,17.02
2019-04-05T22:58:51.710Z,19.42
2019-04-05T23:01:25.336Z,20.33
2019-04-05T23:03:59.098Z,17.23
2019-04-05T23:06:32.656Z,20.52
2019-04-05T23:09:06.249Z,18.55
2019-04-05T23:11:40.014Z,22.33
2019-04-05T23:14:13.652Z,20.80
2019-04-05T23:16:47.373Z,22.23
2019-04-05T23:19:21.099Z,17.08
2019-04-05T23:21:54.856Z,19.40
2019-04-05T23:24:29.179Z,21.75
2019-04-05T23:27:03.522Z,17.05
2019-04-05T23:29:37.146Z,20.98
2019-04-05T23:32:10.923Z,20.40
2019-04-05T23:34:44.750Z,22.13
2019-04-05T23:37:18.506Z,22.60
2019-04-05T23:39:53.053Z,19.98
2019-04-05T23:42:27.309Z,21.05
2019-04-05T23:45:01.000Z,19.75
2019-04-05T23:47:34.680Z,19.62
2019-04-05T23:50:08.274Z,21.95
2019-04-05T23:52:41.820Z,20.98
2019-04-05T23:55:15.408Z,16.83
2019-04-05T23:57:49.696Z,21.08
